sensor_id;sensor_type;location;lat;lon;timestamp;P1;durP1;ratioP1;P2;durP2;ratioP2
13419;SDS011;6781;58.440;15.470;2022-07-21T00:00:19;6.40;;;5.80;;
13419;SDS011;6781;58.440;15.470;2022-07-21T00:02:47;6.50;;;5.90;;
13419;SDS011;6781;58.440;15.470;2022-07-21T00:05:14;6.68;;;6.00;;
13419;SDS011;6781;58.440;15.470;2022-07-21T00:07:43;5.78;;;5.28;;
13419;SDS011;6781;58.440;15.470;2022-07-21T00:10:10;6.47;;;5.88;;
13419;SDS011;6781;58.440;15.470;2022-07-21T00:12:37;6.75;;;6.03;;
13419;SDS011;6781;58.440;15.470;2022-07-21T00:15:05;6.13;;;5.60;;
13419;SDS011;6781;58.440;15.470;2022-07-21T00:17:33;6.10;;;5.60;;
13419;SDS011;6781;58.440;15.470;2022-07-21T00:20:00;8.45;;;6.63;;
13419;SDS011;6781;58.440;15.470;2022-07-21T00:22:27;5.80;;;5.40;;
13419;SDS011;6781;58.440;15.470;2022-07-21T00:24:55;6.05;;;5.55;;
13419;SDS011;6781;58.440;15.470;2022-07-21T00:27:23;7.13;;;6.40;;
13419;SDS011;6781;58.440;15.470;2022-07-21T00:29:50;6.90;;;5.82;;
13419;SDS011;6781;58.440;15.470;2022-07-21T00:32:17;6.97;;;6.38;;
13419;SDS011;6781;58.440;15.470;2022-07-21T00:34:44;6.97;;;6.38;;
13419;SDS011;6781;58.440;15.470;2022-07-21T00:37:11;6.85;;;6.07;;
13419;SDS011;6781;58.440;15.470;2022-07-21T00:39:38;6.53;;;5.93;;
13419;SDS011;6781;58.440;15.470;2022-07-21T00:42:07;6.72;;;6.20;;
13419;SDS011;6781;58.440;15.470;2022-07-21T00:44:33;7.88;;;6.70;;
13419;SDS011;6781;58.440;15.470;2022-07-21T00:47:00;7.03;;;6.38;;
13419;SDS011;6781;58.440;15.470;2022-07-21T00:49:27;6.78;;;6.28;;
13419;SDS011;6781;58.440;15.470;2022-07-21T00:51:54;7.88;;;6.63;;
13419;SDS011;6781;58.440;15.470;2022-07-21T00:54:21;6.35;;;5.75;;
13419;SDS011;6781;58.440;15.470;2022-07-21T00:56:48;6.18;;;5.68;;
13419;SDS011;6781;58.440;15.470;2022-07-21T00:59:16;6.45;;;5.88;;
13419;SDS011;6781;58.440;15.470;2022-07-21T01:01:43;6.80;;;6.20;;
13419;SDS011;6781;58.440;15.470;2022-07-21T01:04:10;7.38;;;6.57;;
13419;SDS011;6781;58.440;15.470;2022-07-21T01:06:37;6.30;;;5.80;;
13419;SDS011;6781;58.440;15.470;2022-07-21T01:09:04;7.88;;;6.53;;
13419;SDS011;6781;58.440;15.470;2022-07-21T01:11:31;7.07;;;6.38;;
13419;SDS011;6781;58.440;15.470;2022-07-21T01:13:58;7.30;;;6.70;;
13419;SDS011;6781;58.440;15.470;2022-07-21T01:16:26;7.35;;;6.55;;
13419;SDS011;6781;58.440;15.470;2022-07-21T01:18:54;7.28;;;6.38;;
13419;SDS011;6781;58.440;15.470;2022-07-21T01:21:29;7.22;;;6.55;;
13419;SDS011;6781;58.440;15.470;2022-07-21T01:23:58;7.25;;;6.65;;
13419;SDS011;6781;58.440;15.470;2022-07-21T01:26:25;7.30;;;6.70;;
13419;SDS011;6781;58.440;15.470;2022-07-21T01:28:52;7.40;;;6.80;;
13419;SDS011;6781;58.440;15.470;2022-07-21T01:31:20;7.30;;;6.70;;
13419;SDS011;6781;58.440;15.470;2022-07-21T01:33:47;7.38;;;6.65;;
13419;SDS011;6781;58.440;15.470;2022-07-21T01:36:14;7.47;;;6.88;;
13419;SDS011;6781;58.440;15.470;2022-07-21T01:38:42;7.97;;;7.32;;
13419;SDS011;6781;58.440;15.470;2022-07-21T01:41:26;7.63;;;6.93;;
13419;SDS011;6781;58.440;15.470;2022-07-21T01:43:58;7.60;;;6.85;;
13419;SDS011;6781;58.440;15.470;2022-07-21T01:46:27;7.50;;;6.80;;
13419;SDS011;6781;58.440;15.470;2022-07-21T01:48:54;7.82;;;6.97;;
13419;SDS011;6781;58.440;15.470;2022-07-21T01:51:22;7.57;;;6.88;;
13419;SDS011;6781;58.440;15.470;2022-07-21T01:53:50;7.45;;;6.85;;
13419;SDS011;6781;58.440;15.470;2022-07-21T01:56:18;7.60;;;6.97;;
13419;SDS011;6781;58.440;15.470;2022-07-21T01:58:48;7.43;;;6.80;;
13419;SDS011;6781;58.440;15.470;2022-07-21T02:01:16;7.55;;;6.90;;
13419;SDS011;6781;58.440;15.470;2022-07-21T02:03:43;7.53;;;6.93;;
13419;SDS011;6781;58.440;15.470;2022-07-21T02:08:45;7.80;;;7.10;;
13419;SDS011;6781;58.440;15.470;2022-07-21T02:11:14;8.10;;;7.32;;
13419;SDS011;6781;58.440;15.470;2022-07-21T02:13:42;7.45;;;6.47;;
13419;SDS011;6781;58.440;15.470;2022-07-21T02:16:10;9.68;;;7.13;;
13419;SDS011;6781;58.440;15.470;2022-07-21T02:18:37;8.45;;;7.57;;
13419;SDS011;6781;58.440;15.470;2022-07-21T02:21:04;8.15;;;7.45;;
13419;SDS011;6781;58.440;15.470;2022-07-21T02:23:32;7.68;;;6.97;;
13419;SDS011;6781;58.440;15.470;2022-07-21T02:26:00;7.63;;;6.93;;
13419;SDS011;6781;58.440;15.470;2022-07-21T02:28:28;7.82;;;7.03;;
13419;SDS011;6781;58.440;15.470;2022-07-21T02:30:55;7.95;;;7.25;;
13419;SDS011;6781;58.440;15.470;2022-07-21T02:33:22;7.80;;;7.05;;
13419;SDS011;6781;58.440;15.470;2022-07-21T02:35:49;8.27;;;7.57;;
13419;SDS011;6781;58.440;15.470;2022-07-21T02:38:16;8.35;;;7.38;;
13419;SDS011;6781;58.440;15.470;2022-07-21T02:40:43;8.05;;;7.32;;
13419;SDS011;6781;58.440;15.470;2022-07-21T02:43:09;7.90;;;7.20;;
13419;SDS011;6781;58.440;15.470;2022-07-21T02:45:38;8.40;;;7.60;;
13419;SDS011;6781;58.440;15.470;2022-07-21T02:48:08;7.70;;;7.00;;
13419;SDS011;6781;58.440;15.470;2022-07-21T02:50:36;8.18;;;7.47;;
13419;SDS011;6781;58.440;15.470;2022-07-21T02:53:05;8.68;;;7.78;;
13419;SDS011;6781;58.440;15.470;2022-07-21T02:55:33;9.57;;;7.93;;
13419;SDS011;6781;58.440;15.470;2022-07-21T02:58:08;8.77;;;8.00;;
13419;SDS011;6781;58.440;15.470;2022-07-21T03:00:38;9.20;;;8.40;;
13419;SDS011;6781;58.440;15.470;2022-07-21T03:03:06;8.88;;;7.97;;
13419;SDS011;6781;58.440;15.470;2022-07-21T03:05:34;8.32;;;7.63;;
13419;SDS011;6781;58.440;15.470;2022-07-21T03:08:02;8.88;;;8.07;;
13419;SDS011;6781;58.440;15.470;2022-07-21T03:10:29;9.07;;;8.27;;
13419;SDS011;6781;58.440;15.470;2022-07-21T03:12:56;9.02;;;8.05;;
13419;SDS011;6781;58.440;15.470;2022-07-21T03:15:22;8.38;;;7.63;;
13419;SDS011;6781;58.440;15.470;2022-07-21T03:17:52;8.52;;;7.82;;
13419;SDS011;6781;58.440;15.470;2022-07-21T03:20:19;8.52;;;7.80;;
13419;SDS011;6781;58.440;15.470;2022-07-21T03:22:48;8.68;;;7.93;;
13419;SDS011;6781;58.440;15.470;2022-07-21T03:25:14;9.20;;;8.30;;
13419;SDS011;6781;58.440;15.470;2022-07-21T03:27:42;8.82;;;8.13;;
13419;SDS011;6781;58.440;15.470;2022-07-21T03:30:09;9.13;;;8.32;;
13419;SDS011;6781;58.440;15.470;2022-07-21T03:32:36;8.88;;;8.07;;
13419;SDS011;6781;58.440;15.470;2022-07-21T03:35:06;9.23;;;8.25;;
13419;SDS011;6781;58.440;15.470;2022-07-21T03:37:39;8.88;;;8.07;;
13419;SDS011;6781;58.440;15.470;2022-07-21T03:40:06;9.50;;;7.95;;
13419;SDS011;6781;58.440;15.470;2022-07-21T03:42:34;8.45;;;7.68;;
13419;SDS011;6781;58.440;15.470;2022-07-21T03:45:01;9.38;;;8.38;;
13419;SDS011;6781;58.440;15.470;2022-07-21T03:47:30;9.75;;;8.63;;
13419;SDS011;6781;58.440;15.470;2022-07-21T03:49:57;9.70;;;8.80;;
13419;SDS011;6781;58.440;15.470;2022-07-21T03:52:25;8.38;;;7.68;;
13419;SDS011;6781;58.440;15.470;2022-07-21T03:54:52;8.40;;;7.65;;
13419;SDS011;6781;58.440;15.470;2022-07-21T03:57:34;9.25;;;8.27;;
13419;SDS011;6781;58.440;15.470;2022-07-21T04:00:05;9.13;;;8.23;;
13419;SDS011;6781;58.440;15.470;2022-07-21T04:02:33;9.90;;;8.00;;
13419;SDS011;6781;58.440;15.470;2022-07-21T04:05:00;8.95;;;8.10;;
13419;SDS011;6781;58.440;15.470;2022-07-21T04:07:28;8.75;;;8.02;;
13419;SDS011;6781;58.440;15.470;2022-07-21T04:09:55;8.85;;;8.15;;
13419;SDS011;6781;58.440;15.470;2022-07-21T04:12:24;9.00;;;8.20;;
13419;SDS011;6781;58.440;15.470;2022-07-21T04:14:52;8.68;;;7.88;;
13419;SDS011;6781;58.440;15.470;2022-07-21T04:17:18;9.23;;;8.32;;
13419;SDS011;6781;58.440;15.470;2022-07-21T04:19:45;9.13;;;8.32;;
13419;SDS011;6781;58.440;15.470;2022-07-21T04:22:12;9.98;;;9.07;;
13419;SDS011;6781;58.440;15.470;2022-07-21T04:24:40;8.93;;;8.23;;
13419;SDS011;6781;58.440;15.470;2022-07-21T04:27:07;9.90;;;8.88;;
13419;SDS011;6781;58.440;15.470;2022-07-21T04:29:33;9.43;;;8.52;;
13419;SDS011;6781;58.440;15.470;2022-07-21T04:32:00;9.18;;;8.38;;
13419;SDS011;6781;58.440;15.470;2022-07-21T04:34:27;9.20;;;8.30;;
13419;SDS011;6781;58.440;15.470;2022-07-21T04:36:55;9.35;;;8.55;;
13419;SDS011;6781;58.440;15.470;2022-07-21T04:39:22;9.43;;;8.52;;
13419;SDS011;6781;58.440;15.470;2022-07-21T04:41:50;10.32;;;9.45;;
13419;SDS011;6781;58.440;15.470;2022-07-21T04:44:17;9.23;;;8.32;;
13419;SDS011;6781;58.440;15.470;2022-07-21T04:46:44;10.52;;;8.88;;
13419;SDS011;6781;58.440;15.470;2022-07-21T04:49:11;9.65;;;8.77;;
13419;SDS011;6781;58.440;15.470;2022-07-21T04:51:38;8.65;;;7.90;;
13419;SDS011;6781;58.440;15.470;2022-07-21T04:54:06;9.25;;;8.45;;
13419;SDS011;6781;58.440;15.470;2022-07-21T04:56:33;9.27;;;8.40;;
13419;SDS011;6781;58.440;15.470;2022-07-21T04:59:02;8.50;;;7.80;;
13419;SDS011;6781;58.440;15.470;2022-07-21T05:01:28;8.85;;;8.05;;
13419;SDS011;6781;58.440;15.470;2022-07-21T05:03:55;9.25;;;8.45;;
13419;SDS011;6781;58.440;15.470;2022-07-21T05:06:22;9.57;;;8.68;;
13419;SDS011;6781;58.440;15.470;2022-07-21T05:08:50;9.38;;;8.45;;
13419;SDS011;6781;58.440;15.470;2022-07-21T05:11:17;9.57;;;8.65;;
13419;SDS011;6781;58.440;15.470;2022-07-21T05:13:43;9.30;;;8.50;;
13419;SDS011;6781;58.440;15.470;2022-07-21T05:16:12;9.50;;;8.20;;
13419;SDS011;6781;58.440;15.470;2022-07-21T05:18:39;9.10;;;8.30;;
13419;SDS011;6781;58.440;15.470;2022-07-21T05:21:05;9.18;;;8.25;;
13419;SDS011;6781;58.440;15.470;2022-07-21T05:23:33;9.18;;;8.38;;
13419;SDS011;6781;58.440;15.470;2022-07-21T05:25:59;8.80;;;8.10;;
13419;SDS011;6781;58.440;15.470;2022-07-21T05:28:26;8.77;;;7.93;;
13419;SDS011;6781;58.440;15.470;2022-07-21T05:30:53;9.80;;;8.50;;
13419;SDS011;6781;58.440;15.470;2022-07-21T05:33:22;8.55;;;7.85;;
13419;SDS011;6781;58.440;15.470;2022-07-21T05:35:49;8.70;;;7.90;;
13419;SDS011;6781;58.440;15.470;2022-07-21T05:38:16;9.00;;;8.10;;
13419;SDS011;6781;58.440;15.470;2022-07-21T05:40:42;8.85;;;8.05;;
13419;SDS011;6781;58.440;15.470;2022-07-21T05:43:09;9.38;;;8.57;;
13419;SDS011;6781;58.440;15.470;2022-07-21T05:45:36;8.30;;;7.50;;
13419;SDS011;6781;58.440;15.470;2022-07-21T05:48:03;8.68;;;7.88;;
13419;SDS011;6781;58.440;15.470;2022-07-21T05:50:31;9.70;;;8.70;;
13419;SDS011;6781;58.440;15.470;2022-07-21T05:52:58;8.77;;;7.97;;
13419;SDS011;6781;58.440;15.470;2022-07-21T05:55:25;9.77;;;8.25;;
13419;SDS011;6781;58.440;15.470;2022-07-21T05:57:52;8.90;;;8.10;;
13419;SDS011;6781;58.440;15.470;2022-07-21T06:00:19;9.40;;;8.50;;
13419;SDS011;6781;58.440;15.470;2022-07-21T06:02:46;9.05;;;8.25;;
13419;SDS011;6781;58.440;15.470;2022-07-21T06:05:15;9.02;;;8.13;;
13419;SDS011;6781;58.440;15.470;2022-07-21T06:07:44;8.75;;;8.02;;
13419;SDS011;6781;58.440;15.470;2022-07-21T06:10:11;9.35;;;8.45;;
13419;SDS011;6781;58.440;15.470;2022-07-21T06:12:38;8.90;;;8.10;;
13419;SDS011;6781;58.440;15.470;2022-07-21T06:15:05;9.00;;;8.20;;
13419;SDS011;6781;58.440;15.470;2022-07-21T06:17:37;9.30;;;8.52;;
13419;SDS011;6781;58.440;15.470;2022-07-21T06:20:05;8.30;;;7.60;;
13419;SDS011;6781;58.440;15.470;2022-07-21T06:22:33;8.60;;;7.95;;
13419;SDS011;6781;58.440;15.470;2022-07-21T06:28:14;8.73;;;7.97;;
13419;SDS011;6781;58.440;15.470;2022-07-21T06:30:41;8.52;;;7.72;;
13419;SDS011;6781;58.440;15.470;2022-07-21T06:33:22;9.10;;;8.30;;
13419;SDS011;6781;58.440;15.470;2022-07-21T06:35:49;8.88;;;8.15;;
13419;SDS011;6781;58.440;15.470;2022-07-21T06:38:17;9.15;;;8.25;;
13419;SDS011;6781;58.440;15.470;2022-07-21T06:40:45;10.57;;;8.68;;
13419;SDS011;6781;58.440;15.470;2022-07-21T06:43:12;8.70;;;7.82;;
13419;SDS011;6781;58.440;15.470;2022-07-21T06:45:41;8.93;;;8.02;;
13419;SDS011;6781;58.440;15.470;2022-07-21T06:48:08;8.90;;;8.10;;
13419;SDS011;6781;58.440;15.470;2022-07-21T06:50:35;8.88;;;7.97;;
13419;SDS011;6781;58.440;15.470;2022-07-21T06:53:03;8.77;;;7.88;;
13419;SDS011;6781;58.440;15.470;2022-07-21T06:55:32;8.75;;;8.00;;
13419;SDS011;6781;58.440;15.470;2022-07-21T06:58:08;10.75;;;8.05;;
13419;SDS011;6781;58.440;15.470;2022-07-21T07:03:45;8.25;;;7.50;;
13419;SDS011;6781;58.440;15.470;2022-07-21T07:06:21;8.68;;;7.88;;
13419;SDS011;6781;58.440;15.470;2022-07-21T07:08:48;9.07;;;8.23;;
13419;SDS011;6781;58.440;15.470;2022-07-21T07:11:16;8.57;;;7.78;;
13419;SDS011;6781;58.440;15.470;2022-07-21T07:13:43;10.15;;;7.75;;
13419;SDS011;6781;58.440;15.470;2022-07-21T07:19:03;8.40;;;7.70;;
13419;SDS011;6781;58.440;15.470;2022-07-21T07:21:30;8.65;;;7.85;;
13419;SDS011;6781;58.440;15.470;2022-07-21T07:24:11;8.82;;;7.93;;
13419;SDS011;6781;58.440;15.470;2022-07-21T07:26:38;7.43;;;6.80;;
13419;SDS011;6781;58.440;15.470;2022-07-21T07:29:05;8.77;;;7.72;;
13419;SDS011;6781;58.440;15.470;2022-07-21T07:31:35;9.48;;;7.28;;
13419;SDS011;6781;58.440;15.470;2022-07-21T07:34:16;8.10;;;7.30;;
13419;SDS011;6781;58.440;15.470;2022-07-21T07:36:44;7.38;;;6.68;;
13419;SDS011;6781;58.440;15.470;2022-07-21T07:39:11;8.27;;;7.57;;
13419;SDS011;6781;58.440;15.470;2022-07-21T07:41:52;7.97;;;7.30;;
13419;SDS011;6781;58.440;15.470;2022-07-21T07:44:27;7.97;;;7.22;;
13419;SDS011;6781;58.440;15.470;2022-07-21T07:46:56;7.78;;;7.03;;
13419;SDS011;6781;58.440;15.470;2022-07-21T07:49:32;7.35;;;6.72;;
13419;SDS011;6781;58.440;15.470;2022-07-21T07:52:13;9.43;;;6.50;;
13419;SDS011;6781;58.440;15.470;2022-07-21T07:54:42;7.70;;;7.00;;
13419;SDS011;6781;58.440;15.470;2022-07-21T07:57:22;8.30;;;7.43;;
13419;SDS011;6781;58.440;15.470;2022-07-21T07:59:50;7.63;;;6.57;;
13419;SDS011;6781;58.440;15.470;2022-07-21T08:02:34;7.07;;;6.47;;
13419;SDS011;6781;58.440;15.470;2022-07-21T08:05:02;6.88;;;6.28;;
13419;SDS011;6781;58.440;15.470;2022-07-21T08:07:29;7.30;;;6.70;;
13419;SDS011;6781;58.440;15.470;2022-07-21T08:10:03;7.28;;;6.57;;
13419;SDS011;6781;58.440;15.470;2022-07-21T08:12:30;8.23;;;7.00;;
13419;SDS011;6781;58.440;15.470;2022-07-21T08:14:58;7.57;;;6.97;;
13419;SDS011;6781;58.440;15.470;2022-07-21T08:17:36;6.78;;;6.05;;
13419;SDS011;6781;58.440;15.470;2022-07-21T08:20:05;7.68;;;6.93;;
13419;SDS011;6781;58.440;15.470;2022-07-21T08:22:33;9.18;;;6.70;;
13419;SDS011;6781;58.440;15.470;2022-07-21T08:25:00;6.75;;;6.10;;
13419;SDS011;6781;58.440;15.470;2022-07-21T08:27:28;7.13;;;6.20;;
13419;SDS011;6781;58.440;15.470;2022-07-21T08:30:10;6.72;;;6.10;;
13419;SDS011;6781;58.440;15.470;2022-07-21T08:32:55;7.82;;;5.70;;
13419;SDS011;6781;58.440;15.470;2022-07-21T08:35:24;6.60;;;6.00;;
13419;SDS011;6781;58.440;15.470;2022-07-21T08:37:52;6.78;;;6.15;;
13419;SDS011;6781;58.440;15.470;2022-07-21T08:40:22;6.78;;;6.07;;
13419;SDS011;6781;58.440;15.470;2022-07-21T08:42:53;6.65;;;5.88;;
13419;SDS011;6781;58.440;15.470;2022-07-21T08:45:34;5.97;;;5.53;;
13419;SDS011;6781;58.440;15.470;2022-07-21T08:51:20;6.15;;;5.55;;
13419;SDS011;6781;58.440;15.470;2022-07-21T08:53:48;6.32;;;5.47;;
13419;SDS011;6781;58.440;15.470;2022-07-21T08:56:28;6.68;;;5.85;;
13419;SDS011;6781;58.440;15.470;2022-07-21T08:59:09;6.10;;;5.60;;
13419;SDS011;6781;58.440;15.470;2022-07-21T09:01:38;6.20;;;5.20;;
13419;SDS011;6781;58.440;15.470;2022-07-21T09:04:19;5.25;;;4.85;;
13419;SDS011;6781;58.440;15.470;2022-07-21T09:07:10;6.75;;;5.38;;
13419;SDS011;6781;58.440;15.470;2022-07-21T09:09:54;5.65;;;5.00;;
13419;SDS011;6781;58.440;15.470;2022-07-21T09:12:36;6.00;;;5.03;;
13419;SDS011;6781;58.440;15.470;2022-07-21T09:15:18;6.80;;;4.90;;
13419;SDS011;6781;58.440;15.470;2022-07-21T09:18:08;4.75;;;4.28;;
13419;SDS011;6781;58.440;15.470;2022-07-21T09:20:50;5.28;;;4.70;;
13419;SDS011;6781;58.440;15.470;2022-07-21T09:26:31;6.78;;;4.53;;
13419;SDS011;6781;58.440;15.470;2022-07-21T09:29:09;8.90;;;5.05;;
13419;SDS011;6781;58.440;15.470;2022-07-21T09:31:52;5.40;;;4.85;;
13419;SDS011;6781;58.440;15.470;2022-07-21T09:34:21;5.13;;;4.18;;
13419;SDS011;6781;58.440;15.470;2022-07-21T09:37:24;5.55;;;4.25;;
13419;SDS011;6781;58.440;15.470;2022-07-21T09:39:57;5.15;;;4.68;;
13419;SDS011;6781;58.440;15.470;2022-07-21T09:42:53;6.78;;;4.47;;
13419;SDS011;6781;58.440;15.470;2022-07-21T09:45:20;6.90;;;4.68;;
13419;SDS011;6781;58.440;15.470;2022-07-21T09:48:03;6.93;;;5.07;;
13419;SDS011;6781;58.440;15.470;2022-07-21T09:50:30;8.20;;;6.85;;
13419;SDS011;6781;58.440;15.470;2022-07-21T09:52:57;7.40;;;6.80;;
13419;SDS011;6781;58.440;15.470;2022-07-21T09:55:26;7.07;;;6.57;;
13419;SDS011;6781;58.440;15.470;2022-07-21T09:57:53;6.68;;;6.18;;
13419;SDS011;6781;58.440;15.470;2022-07-21T10:00:23;7.28;;;6.45;;
13419;SDS011;6781;58.440;15.470;2022-07-21T10:02:50;7.60;;;5.88;;
13419;SDS011;6781;58.440;15.470;2022-07-21T10:05:17;7.13;;;6.28;;
13419;SDS011;6781;58.440;15.470;2022-07-21T10:07:47;7.15;;;6.45;;
13419;SDS011;6781;58.440;15.470;2022-07-21T10:10:15;6.45;;;5.82;;
13419;SDS011;6781;58.440;15.470;2022-07-21T10:12:55;6.95;;;6.25;;
13419;SDS011;6781;58.440;15.470;2022-07-21T10:15:22;6.88;;;6.28;;
13419;SDS011;6781;58.440;15.470;2022-07-21T10:17:50;7.40;;;6.80;;
13419;SDS011;6781;58.440;15.470;2022-07-21T10:20:21;7.57;;;6.80;;
13419;SDS011;6781;58.440;15.470;2022-07-21T10:22:55;8.20;;;7.47;;
13419;SDS011;6781;58.440;15.470;2022-07-21T10:25:29;6.80;;;6.30;;
13419;SDS011;6781;58.440;15.470;2022-07-21T10:28:13;6.63;;;6.03;;
13419;SDS011;6781;58.440;15.470;2022-07-21T10:30:43;22.95;;;6.88;;
13419;SDS011;6781;58.440;15.470;2022-07-21T10:33:11;10.90;;;6.35;;
13419;SDS011;6781;58.440;15.470;2022-07-21T10:35:40;11.43;;;7.03;;
13419;SDS011;6781;58.440;15.470;2022-07-21T10:38:25;13.27;;;6.35;;
13419;SDS011;6781;58.440;15.470;2022-07-21T10:40:53;6.53;;;5.53;;
13419;SDS011;6781;58.440;15.470;2022-07-21T10:43:41;6.75;;;6.15;;
13419;SDS011;6781;58.440;15.470;2022-07-21T10:49:02;6.97;;;6.38;;
13419;SDS011;6781;58.440;15.470;2022-07-21T10:51:33;6.47;;;5.75;;
13419;SDS011;6781;58.440;15.470;2022-07-21T10:56:48;7.20;;;5.82;;
13419;SDS011;6781;58.440;15.470;2022-07-21T11:00:16;6.57;;;5.97;;
13419;SDS011;6781;58.440;15.470;2022-07-21T11:02:45;9.00;;;6.00;;
13419;SDS011;6781;58.440;15.470;2022-07-21T11:05:14;6.15;;;5.00;;
13419;SDS011;6781;58.440;15.470;2022-07-21T11:10:37;7.35;;;4.70;;
13419;SDS011;6781;58.440;15.470;2022-07-21T11:13:05;5.38;;;4.88;;
13419;SDS011;6781;58.440;15.470;2022-07-21T11:15:46;5.75;;;4.35;;
13419;SDS011;6781;58.440;15.470;2022-07-21T11:18:25;7.80;;;4.72;;
13419;SDS011;6781;58.440;15.470;2022-07-21T11:21:03;4.97;;;4.40;;
13419;SDS011;6781;58.440;15.470;2022-07-21T11:23:41;6.47;;;4.28;;
13419;SDS011;6781;58.440;15.470;2022-07-21T11:26:09;6.20;;;4.50;;
13419;SDS011;6781;58.440;15.470;2022-07-21T11:28:38;6.63;;;4.80;;
13419;SDS011;6781;58.440;15.470;2022-07-21T11:31:07;6.07;;;4.68;;
13419;SDS011;6781;58.440;15.470;2022-07-21T11:33:41;5.85;;;4.47;;
13419;SDS011;6781;58.440;15.470;2022-07-21T11:36:09;4.78;;;4.07;;
13419;SDS011;6781;58.440;15.470;2022-07-21T11:38:36;6.07;;;4.75;;
13419;SDS011;6781;58.440;15.470;2022-07-21T11:41:13;4.85;;;4.38;;
13419;SDS011;6781;58.440;15.470;2022-07-21T11:43:44;12.07;;;4.90;;
13419;SDS011;6781;58.440;15.470;2022-07-21T11:46:13;5.10;;;4.30;;
13419;SDS011;6781;58.440;15.470;2022-07-21T11:48:41;6.28;;;4.18;;
13419;SDS011;6781;58.440;15.470;2022-07-21T11:51:08;5.47;;;4.75;;
13419;SDS011;6781;58.440;15.470;2022-07-21T11:53:35;5.85;;;4.00;;
13419;SDS011;6781;58.440;15.470;2022-07-21T11:56:02;6.93;;;4.43;;
13419;SDS011;6781;58.440;15.470;2022-07-21T11:58:39;8.48;;;4.60;;
13419;SDS011;6781;58.440;15.470;2022-07-21T12:01:07;5.32;;;4.80;;
13419;SDS011;6781;58.440;15.470;2022-07-21T12:03:35;5.68;;;4.25;;
13419;SDS011;6781;58.440;15.470;2022-07-21T12:06:13;11.18;;;4.80;;
13419;SDS011;6781;58.440;15.470;2022-07-21T12:08:41;5.57;;;4.82;;
13419;SDS011;6781;58.440;15.470;2022-07-21T12:11:08;5.45;;;4.40;;
13419;SDS011;6781;58.440;15.470;2022-07-21T12:13:52;7.07;;;4.60;;
13419;SDS011;6781;58.440;15.470;2022-07-21T12:16:21;5.00;;;4.63;;
13419;SDS011;6781;58.440;15.470;2022-07-21T12:18:49;8.35;;;4.53;;
13419;SDS011;6781;58.440;15.470;2022-07-21T12:21:42;6.03;;;4.40;;
13419;SDS011;6781;58.440;15.470;2022-07-21T12:24:10;6.07;;;4.60;;
13419;SDS011;6781;58.440;15.470;2022-07-21T12:26:37;5.50;;;4.60;;
13419;SDS011;6781;58.440;15.470;2022-07-21T12:29:04;5.55;;;4.75;;
13419;SDS011;6781;58.440;15.470;2022-07-21T12:31:31;6.32;;;4.50;;
13419;SDS011;6781;58.440;15.470;2022-07-21T12:34:09;8.30;;;4.85;;
13419;SDS011;6781;58.440;15.470;2022-07-21T12:36:44;5.30;;;4.47;;
13419;SDS011;6781;58.440;15.470;2022-07-21T12:39:26;5.32;;;4.82;;
13419;SDS011;6781;58.440;15.470;2022-07-21T12:46:27;6.63;;;4.13;;
13419;SDS011;6781;58.440;15.470;2022-07-21T12:52:24;5.80;;;4.88;;
13419;SDS011;6781;58.440;15.470;2022-07-21T12:54:55;7.80;;;4.55;;
13419;SDS011;6781;58.440;15.470;2022-07-21T12:57:24;7.35;;;4.32;;
13419;SDS011;6781;58.440;15.470;2022-07-21T12:59:54;5.40;;;4.65;;
13419;SDS011;6781;58.440;15.470;2022-07-21T13:02:25;5.55;;;4.72;;
13419;SDS011;6781;58.440;15.470;2022-07-21T13:04:58;8.10;;;4.85;;
13419;SDS011;6781;58.440;15.470;2022-07-21T13:07:24;6.53;;;4.45;;
13419;SDS011;6781;58.440;15.470;2022-07-21T13:09:51;9.50;;;4.97;;
13419;SDS011;6781;58.440;15.470;2022-07-21T13:12:20;8.63;;;4.70;;
13419;SDS011;6781;58.440;15.470;2022-07-21T13:14:50;5.97;;;4.70;;
13419;SDS011;6781;58.440;15.470;2022-07-21T13:17:16;5.13;;;4.65;;
13419;SDS011;6781;58.440;15.470;2022-07-21T13:19:46;7.00;;;4.63;;
13419;SDS011;6781;58.440;15.470;2022-07-21T13:22:27;6.45;;;4.82;;
13419;SDS011;6781;58.440;15.470;2022-07-21T13:24:55;5.00;;;4.50;;
13419;SDS011;6781;58.440;15.470;2022-07-21T13:27:22;5.97;;;4.47;;
13419;SDS011;6781;58.440;15.470;2022-07-21T13:29:48;6.32;;;4.28;;
13419;SDS011;6781;58.440;15.470;2022-07-21T13:32:18;8.38;;;4.57;;
13419;SDS011;6781;58.440;15.470;2022-07-21T13:35:03;4.35;;;4.03;;
13419;SDS011;6781;58.440;15.470;2022-07-21T13:37:33;4.53;;;4.20;;
13419;SDS011;6781;58.440;15.470;2022-07-21T13:40:13;6.00;;;4.47;;
13419;SDS011;6781;58.440;15.470;2022-07-21T13:42:47;8.45;;;4.55;;
13419;SDS011;6781;58.440;15.470;2022-07-21T13:45:14;6.75;;;4.13;;
13419;SDS011;6781;58.440;15.470;2022-07-21T13:47:59;4.80;;;4.40;;
13419;SDS011;6781;58.440;15.470;2022-07-21T13:50:41;7.40;;;4.28;;
13419;SDS011;6781;58.440;15.470;2022-07-21T13:53:10;5.95;;;4.65;;
13419;SDS011;6781;58.440;15.470;2022-07-21T13:55:37;7.38;;;4.53;;
13419;SDS011;6781;58.440;15.470;2022-07-21T13:58:06;5.30;;;4.45;;
13419;SDS011;6781;58.440;15.470;2022-07-21T14:00:33;4.55;;;4.13;;
13419;SDS011;6781;58.440;15.470;2022-07-21T14:03:00;4.90;;;4.40;;
13419;SDS011;6781;58.440;15.470;2022-07-21T14:05:28;6.50;;;3.97;;
13419;SDS011;6781;58.440;15.470;2022-07-21T14:07:57;4.78;;;4.22;;
13419;SDS011;6781;58.440;15.470;2022-07-21T14:10:26;4.63;;;4.20;;
13419;SDS011;6781;58.440;15.470;2022-07-21T14:12:53;5.13;;;4.38;;
13419;SDS011;6781;58.440;15.470;2022-07-21T14:15:20;5.63;;;4.00;;
13419;SDS011;6781;58.440;15.470;2022-07-21T14:17:48;7.75;;;4.75;;
13419;SDS011;6781;58.440;15.470;2022-07-21T14:20:15;5.53;;;4.00;;
13419;SDS011;6781;58.440;15.470;2022-07-21T14:22:42;5.60;;;4.05;;
13419;SDS011;6781;58.440;15.470;2022-07-21T14:25:09;4.88;;;4.32;;
13419;SDS011;6781;58.440;15.470;2022-07-21T14:27:50;4.78;;;4.25;;
13419;SDS011;6781;58.440;15.470;2022-07-21T14:30:20;4.57;;;3.90;;
13419;SDS011;6781;58.440;15.470;2022-07-21T14:32:50;4.55;;;4.15;;
13419;SDS011;6781;58.440;15.470;2022-07-21T14:35:18;5.78;;;4.50;;
13419;SDS011;6781;58.440;15.470;2022-07-21T14:37:47;6.95;;;4.43;;
13419;SDS011;6781;58.440;15.470;2022-07-21T14:40:15;7.45;;;3.90;;
13419;SDS011;6781;58.440;15.470;2022-07-21T14:42:44;4.85;;;3.90;;
13419;SDS011;6781;58.440;15.470;2022-07-21T14:45:14;5.93;;;4.00;;
13419;SDS011;6781;58.440;15.470;2022-07-21T14:47:41;4.45;;;4.05;;
13419;SDS011;6781;58.440;15.470;2022-07-21T14:50:09;4.65;;;4.18;;
13419;SDS011;6781;58.440;15.470;2022-07-21T14:52:35;7.00;;;4.47;;
13419;SDS011;6781;58.440;15.470;2022-07-21T14:55:03;4.50;;;3.88;;
13419;SDS011;6781;58.440;15.470;2022-07-21T14:57:31;4.47;;;4.07;;
13419;SDS011;6781;58.440;15.470;2022-07-21T14:59:58;9.43;;;4.72;;
13419;SDS011;6781;58.440;15.470;2022-07-21T15:02:26;4.72;;;4.20;;
13419;SDS011;6781;58.440;15.470;2022-07-21T15:04:53;7.18;;;4.55;;
13419;SDS011;6781;58.440;15.470;2022-07-21T15:07:20;8.77;;;4.38;;
13419;SDS011;6781;58.440;15.470;2022-07-21T15:09:52;7.22;;;4.38;;
13419;SDS011;6781;58.440;15.470;2022-07-21T15:12:20;4.82;;;4.13;;
13419;SDS011;6781;58.440;15.470;2022-07-21T15:14:47;9.43;;;4.22;;
13419;SDS011;6781;58.440;15.470;2022-07-21T15:17:14;5.68;;;3.90;;
13419;SDS011;6781;58.440;15.470;2022-07-21T15:19:44;6.53;;;4.35;;
13419;SDS011;6781;58.440;15.470;2022-07-21T15:22:11;7.53;;;3.92;;
13419;SDS011;6781;58.440;15.470;2022-07-21T15:24:38;7.13;;;4.47;;
13419;SDS011;6781;58.440;15.470;2022-07-21T15:27:04;7.15;;;3.92;;
13419;SDS011;6781;58.440;15.470;2022-07-21T15:29:31;5.82;;;4.10;;
13419;SDS011;6781;58.440;15.470;2022-07-21T15:31:58;6.68;;;4.03;;
13419;SDS011;6781;58.440;15.470;2022-07-21T15:34:25;8.43;;;4.18;;
13419;SDS011;6781;58.440;15.470;2022-07-21T15:36:53;4.78;;;4.28;;
13419;SDS011;6781;58.440;15.470;2022-07-21T15:39:20;5.32;;;4.18;;